Time;durP1;ratioP1;P1;durP2;ratioP2;P2;SDS_P1;SDS_P2;PMS_P1;PMS_P2;Temp;Humidity;BMP_temperature;BMP_pressure;BME280_temperature;BME280_humidity;BME280_pressure;Samples;Min_cycle;Max_cycle;Signal;HPM_P1;HPM_P2
2022/03/20 00:00:33;;;;;;;;;;;;;;;-143.90;100.00;55258.16;2092792;28;19936;-65
2022/03/20 00:01:53;;;;;;;;;;;;;;;-143.90;100.00;55216.47;2091240;28;19916;-63
2022/03/20 00:03:14;;;;;;;;;;;;;;;-143.90;100.00;55206.53;2091172;28;19925;-62
2022/03/20 00:04:35;;;;;;;;;;;;;;;-143.90;100.00;55214.47;2093398;28;20825;-64
2022/03/20 00:05:56;;;;;;;;;;;;;;;-143.90;100.00;55258.16;2093290;28;19920;-63
2022/03/20 00:07:17;;;;;;;;;;;;;;;-143.90;100.00;55214.47;2091669;28;19927;-64
2022/03/20 00:08:38;;;;;;;;;;;;;;;-143.90;100.00;55208.50;2093154;28;20935;-63
2022/03/20 00:09:58;;;;;;;;;;;;;;;-143.90;100.00;55254.19;2091104;28;19924;-64
2022/03/20 00:11:20;;;;;;;;;;;;;;;-143.90;100.00;55182.69;2093496;28;20878;-64
2022/03/20 00:12:41;;;;;;;;;;;;;;;-143.90;100.00;55206.53;2094602;28;19971;-64
2022/03/20 00:14:02;;;;;;;;;;;;;;;-143.90;100.00;55232.34;2094295;28;19930;-61
2022/03/20 00:15:23;;;;;;;;;;;;;;;-143.90;100.00;55186.69;2092054;28;19928;-62
2022/03/20 00:16:44;;;;;;;;;;;;;;;-143.90;100.00;55244.25;2092839;28;19924;-61
2022/03/20 00:18:06;;;;;;;;;;;;;;;-143.90;100.00;55206.53;2092653;28;20023;-62
2022/03/20 00:19:28;;;;;;;;;;;;;;;-143.90;100.00;55230.34;2092023;28;19921;-63
2022/03/20 00:20:49;;;;;;;;;;;;;;;-143.90;100.00;55218.44;2092351;28;20502;-63
2022/03/20 00:22:11;;;;;;;;;;;;;;;-143.90;100.00;55198.59;2093454;28;20042;-63
2022/03/20 00:23:32;;;;;;;;;;;;;;;-143.90;100.00;55186.69;2091600;28;19967;-63
2022/03/20 00:24:53;;;;;;;;;;;;;;;-143.90;100.00;55242.28;2075082;28;19953;-63
2022/03/20 00:26:15;;;;;;;;;;;;;;;-143.90;100.00;55244.25;2074827;28;19964;-63
2022/03/20 00:27:36;;;;;;;;;;;;;;;-143.90;100.00;55222.41;2074360;28;20670;-64
2022/03/20 00:28:58;;;;;;;;;;;;;;;-143.90;100.00;55230.34;2073035;28;19967;-61
2022/03/20 00:30:18;;;;;;;;;;;;;;;-143.90;100.00;55230.34;2079822;28;19925;-64
2022/03/20 00:31:40;;;;;;;;;;;;;;;-143.90;100.00;55234.31;2078232;28;19921;-63
2022/03/20 00:33:01;;;;;;;;;;;;;;;-143.90;100.00;55202.56;2075561;28;20070;-63
2022/03/20 00:34:21;;;;;;;;;;;;;;;-143.90;100.00;55210.50;2075127;28;20000;-63
2022/03/20 00:35:42;;;;;;;;;;;;;;;-143.90;100.00;55234.31;2074267;28;19925;-63
2022/03/20 00:37:03;;;;;;;;;;;;;;;-143.90;100.00;55236.31;2075527;28;19928;-63
2022/03/20 00:38:24;;;;;;;;;;;;;;;-143.90;100.00;55222.41;2075261;28;19933;-61
2022/03/20 00:39:45;;;;;;;;;;;;;;;-143.90;100.00;55242.28;2076596;28;19929;-63
2022/03/20 00:41:06;;;;;;;;;;;;;;;-143.90;100.00;55202.56;2075744;28;19932;-63
2022/03/20 00:42:26;;;;;;;;;;;;;;;-143.90;100.00;55214.47;2076094;28;19921;-63
2022/03/20 00:43:47;;;;;;;;;;;;;;;-143.90;100.00;55234.31;2075748;28;19931;-63
2022/03/20 00:45:08;;;;;;;;;;;;;;;-143.90;100.00;55260.16;2076302;28;19921;-63
2022/03/20 00:46:28;;;;;;;;;;;;;;;-143.90;100.00;55190.66;2076507;28;20006;-62
2022/03/20 00:47:49;;;;;;;;;;;;;;;-143.90;100.00;55236.31;2075439;28;19920;-63
2022/03/20 00:49:10;;;;;;;;;;;;;;;-143.90;100.00;55190.66;2076341;28;19921;-62
2022/03/20 00:50:30;;;;;;;;;;;;;;;-143.90;100.00;55202.56;2075870;28;19925;-62
2022/03/20 00:51:51;;;;;;;;;;;;;;;-143.90;99.05;55186.69;2076591;28;19966;-62
2022/03/20 00:53:12;;;;;;;;;;;;;;;-143.90;98.62;55218.44;2075190;28;19921;-63
2022/03/20 00:54:33;;;;;;;;;;;;;;;-143.90;98.34;55214.47;2076864;28;19920;-63
2022/03/20 00:55:54;;;;;;;;;;;;;;;-143.90;98.11;55250.22;2075821;28;20889;-63
2022/03/20 00:57:14;;;;;;;;;;;;;;;-143.90;97.97;55204.53;2075969;28;19948;-64
2022/03/20 00:58:35;;;;;;;;;;;;;;;-143.90;97.58;55244.25;2075260;28;19921;-64
2022/03/20 00:59:56;;;;;;;;;;;;;;;-143.90;97.11;55214.47;2076061;28;19921;-63
2022/03/20 01:01:17;;;;;;;;;;;;;;;-143.90;96.98;55202.56;2074792;28;20006;-63
2022/03/20 01:02:38;;;;;;;;;;;;;;;-143.90;96.48;55210.50;2076219;28;20395;-63
2022/03/20 01:03:59;;;;;;;;;;;;;;;-143.90;96.22;55182.69;2075531;28;20020;-63
2022/03/20 01:05:20;;;;;;;;;;;;;;;-143.90;96.40;55174.75;2075375;28;19921;-63
2022/03/20 01:06:40;;;;;;;;;;;;;;;-143.90;96.63;55268.09;2073722;28;19959;-63
2022/03/20 01:08:01;;;;;;;;;;;;;;;-143.90;96.37;55242.28;2074619;28;19976;-63
2022/03/20 01:09:25;;;;;;;;;;;;;;;-143.90;96.59;55206.53;2075754;28;19925;-62
2022/03/20 01:10:46;;;;;;;;;;;;;;;-143.90;96.95;55192.63;2076725;28;19975;-62
2022/03/20 01:12:10;;;;;;;;;;;;;;;-143.90;97.04;55214.47;2076516;28;19928;-62
2022/03/20 01:13:30;;;;;;;;;;;;;;;-143.90;97.17;55252.19;2075355;28;19964;-62
2022/03/20 01:14:51;;;;;;;;;;;;;;;-143.90;97.34;55214.47;2074963;28;19960;-64
2022/03/20 01:16:12;;;;;;;;;;;;;;;-143.90;97.01;55210.50;2075006;28;19921;-64
2022/03/20 01:17:34;;;;;;;;;;;;;;;-143.90;97.44;55222.41;2074478;28;19928;-63
2022/03/20 01:18:55;;;;;;;;;;;;;;;-143.90;98.07;55238.31;2084072;28;19932;-63
2022/03/20 01:20:16;;;;;;;;;;;;;;;-143.90;98.41;55214.47;2078478;28;20650;-63
2022/03/20 01:21:36;;;;;;;;;;;;;;;-143.90;99.24;55238.31;2076409;28;19972;-64
2022/03/20 01:22:57;;;;;;;;;;;;;;;-143.90;99.95;55222.41;2075460;28;19936;-63
2022/03/20 01:24:18;;;;;;;;;;;;;;;-143.90;100.00;55230.34;2081266;28;19979;-64
2022/03/20 01:25:40;;;;;;;;;;;;;;;-143.90;100.00;55234.31;2092861;28;20386;-63
2022/03/20 01:27:01;;;;;;;;;;;;;;;-143.90;100.00;55281.97;2093472;28;19978;-62
2022/03/20 01:28:23;;;;;;;;;;;;;;;-143.90;100.00;55242.28;2093620;28;19924;-60
2022/03/20 01:29:43;;;;;;;;;;;;;;;-143.90;100.00;55234.31;2094969;28;19924;-60
2022/03/20 01:31:04;;;;;;;;;;;;;;;-143.90;100.00;55222.41;2093429;28;19924;-62
2022/03/20 01:32:26;;;;;;;;;;;;;;;-143.90;100.00;55222.41;2092920;28;19944;-63
2022/03/20 01:33:46;;;;;;;;;;;;;;;-143.90;100.00;55226.38;2093070;28;20012;-63
2022/03/20 01:35:09;;;;;;;;;;;;;;;-143.90;100.00;55242.28;2094363;28;19927;-62
2022/03/20 01:36:30;;;;;;;;;;;;;;;-143.90;100.00;55206.53;2094384;28;19927;-60
2022/03/20 01:37:51;;;;;;;;;;;;;;;-143.90;100.00;55206.53;2086511;28;19921;-62
2022/03/20 01:39:11;;;;;;;;;;;;;;;-143.90;100.00;55224.41;2090139;28;19920;-63
2022/03/20 01:40:32;;;;;;;;;;;;;;;-143.90;100.00;55202.56;2093988;28;19924;-63
2022/03/20 01:41:53;;;;;;;;;;;;;;;-143.90;100.00;55258.16;2094916;28;20018;-63
2022/03/20 01:43:14;;;;;;;;;;;;;;;-143.90;100.00;55222.41;2094998;28;19921;-62
2022/03/20 01:44:35;;;;;;;;;;;;;;;-143.90;100.00;55222.41;2094246;28;20591;-62
2022/03/20 01:45:56;;;;;;;;;;;;;;;-143.90;100.00;55182.69;2093452;28;21052;-63
2022/03/20 01:47:16;;;;;;;;;;;;;;;-143.90;100.00;55222.41;2094818;28;19920;-62
2022/03/20 01:48:37;;;;;;;;;;;;;;;-143.90;100.00;55220.44;2093425;28;19924;-61
2022/03/20 01:49:58;;;;;;;;;;;;;;;-143.90;100.00;55204.53;2094268;28;19994;-62
2022/03/20 01:52:10;;;;;;;;;;;;;;;-143.90;100.00;55218.44;2095097;28;19965;-62
2022/03/20 01:52:59;;;;;;;;;;;;;;;-143.90;100.00;55204.53;2094377;28;20025;-63
2022/03/20 01:54:20;;;;;;;;;;;;;;;-143.90;100.00;55206.53;2095029;28;20421;-62
2022/03/20 01:55:41;;;;;;;;;;;;;;;-143.90;100.00;55208.50;2094048;28;19920;-62
2022/03/20 01:57:02;;;;;;;;;;;;;;;-143.90;100.00;55190.66;2093504;28;20044;-65
2022/03/20 01:58:22;;;;;;;;;;;;;;;-143.90;100.00;55242.28;2094003;28;19927;-62
2022/03/20 01:59:44;;;;;;;;;;;;;;;-143.90;100.00;55206.53;2092733;28;19920;-62
2022/03/20 02:01:04;;;;;;;;;;;;;;;-143.90;100.00;55230.34;2094087;28;20389;-63
2022/03/20 02:02:25;;;;;;;;;;;;;;;-143.90;100.00;55190.66;2095147;28;20281;-63
2022/03/20 02:03:53;;;;;;;;;;;;;;;-143.90;100.00;55200.56;2092582;28;19924;-61
2022/03/20 02:05:14;;;;;;;;;;;;;;;-143.90;100.00;55222.41;2092944;28;19928;-62
2022/03/20 02:06:35;;;;;;;;;;;;;;;-143.90;100.00;55198.59;2093890;28;19925;-63
2022/03/20 02:07:56;;;;;;;;;;;;;;;-143.90;100.00;55218.44;2091618;28;21721;-63
2022/03/20 02:09:17;;;;;;;;;;;;;;;-143.90;100.00;55246.25;2093669;28;19926;-62
2022/03/20 02:10:38;;;;;;;;;;;;;;;-143.90;100.00;55198.59;2094473;28;19920;-63
2022/03/20 02:11:59;;;;;;;;;;;;;;;-143.90;100.00;55190.66;2094828;28;19927;-62
2022/03/20 02:13:23;;;;;;;;;;;;;;;-143.90;100.00;55222.41;2093138;28;19920;-62
2022/03/20 02:14:45;;;;;;;;;;;;;;;-143.90;100.00;55178.72;2092531;28;19927;-61
2022/03/20 02:16:05;;;;;;;;;;;;;;;-143.90;100.00;55206.53;2093826;28;19931;-62
2022/03/20 02:17:30;;;;;;;;;;;;;;;-143.90;100.00;55214.47;2093647;28;19972;-62
2022/03/20 02:18:50;;;;;;;;;;;;;;;-143.90;100.00;55238.31;2093518;28;19927;-62
2022/03/20 02:20:11;;;;;;;;;;;;;;;-143.90;100.00;55226.38;2094507;28;20012;-61
2022/03/20 02:21:36;;;;;;;;;;;;;;;-143.90;100.00;55190.66;2093480;28;19920;-62
2022/03/20 02:22:56;;;;;;;;;;;;;;;-143.90;100.00;55230.34;2093398;28;20002;-59
2022/03/20 02:24:40;;;;;;;;;;;;;;;-143.90;100.00;55198.59;2092753;28;19924;-62
2022/03/20 02:26:01;;;;;;;;;;;;;;;-143.90;100.00;55188.66;2090974;28;19960;-59
2022/03/20 02:27:24;;;;;;;;;;;;;;;-143.90;100.00;55226.38;2092589;28;19924;-60
2022/03/20 02:28:45;;;;;;;;;;;;;;;-143.90;100.00;55218.44;2092582;28;20368;-63
2022/03/20 02:30:12;;;;;;;;;;;;;;;-143.90;100.00;55190.66;2092375;28;19921;-62
2022/03/20 02:31:33;;;;;;;;;;;;;;;-143.90;100.00;55234.31;2094224;28;19959;-62
2022/03/20 02:32:53;;;;;;;;;;;;;;;-143.90;100.00;55230.34;2093646;28;19939;-61
2022/03/20 02:34:14;;;;;;;;;;;;;;;-143.90;100.00;55178.72;2094427;28;19932;-61
2022/03/20 02:35:35;;;;;;;;;;;;;;;-143.90;100.00;55212.50;2091542;28;20130;-61
2022/03/20 02:37:02;;;;;;;;;;;;;;;-143.90;100.00;55208.50;2092786;28;19920;-63
2022/03/20 02:38:22;;;;;;;;;;;;;;;-143.90;100.00;55212.50;2093286;28;19924;-63
2022/03/20 02:39:43;;;;;;;;;;;;;;;-143.90;100.00;55220.44;2095221;28;19926;-61
2022/03/20 02:41:14;;;;;;;;;;;;;;;-143.90;100.00;55194.63;2094373;28;20815;-63
2022/03/20 02:42:37;;;;;;;;;;;;;;;-143.90;100.00;55240.28;2093326;28;19924;-61
2022/03/20 02:44:01;;;;;;;;;;;;;;;-143.90;100.00;55198.59;2092156;28;19920;-64
2022/03/20 02:45:23;;;;;;;;;;;;;;;-143.90;100.00;55206.53;2083970;28;20470;-64
2022/03/20 02:46:44;;;;;;;;;;;;;;;-143.90;100.00;55230.34;2090743;28;19920;-63
2022/03/20 02:48:04;;;;;;;;;;;;;;;-143.90;100.00;55202.56;2093004;28;19976;-63
2022/03/20 02:49:25;;;;;;;;;;;;;;;-143.90;100.00;55202.56;2093592;28;19921;-63
2022/03/20 02:50:46;;;;;;;;;;;;;;;-143.90;100.00;55202.56;2092788;28;19928;-62
2022/03/20 02:52:07;;;;;;;;;;;;;;;-143.90;100.00;55240.28;2092528;28;19920;-60
2022/03/20 02:53:27;;;;;;;;;;;;;;;-143.90;100.00;55198.59;2093704;28;19920;-62
2022/03/20 02:54:48;;;;;;;;;;;;;;;-143.90;100.00;55192.63;2093323;28;20015;-63
2022/03/20 02:56:10;;;;;;;;;;;;;;;-143.90;100.00;55236.31;2092153;28;19921;-62
2022/03/20 02:57:32;;;;;;;;;;;;;;;-143.90;100.00;55194.63;2093069;28;19936;-62
2022/03/20 02:58:52;;;;;;;;;;;;;;;-143.90;100.00;55202.56;2094439;28;19927;-62
2022/03/20 03:00:14;;;;;;;;;;;;;;;-143.90;100.00;55208.50;2093272;28;19951;-62
2022/03/20 03:01:35;;;;;;;;;;;;;;;-143.90;100.00;55246.25;2092924;28;20318;-63
2022/03/20 03:02:57;;;;;;;;;;;;;;;-143.90;100.00;55234.31;2094374;28;20046;-63
2022/03/20 03:04:20;;;;;;;;;;;;;;;-143.90;100.00;55218.44;2093478;28;19920;-63
2022/03/20 03:05:41;;;;;;;;;;;;;;;-143.90;100.00;55238.31;2092531;28;19927;-62
2022/03/20 03:07:02;;;;;;;;;;;;;;;-143.90;100.00;55198.59;2093729;28;19921;-63
2022/03/20 03:11:46;;;;;;;;;;;;;;;-143.90;100.00;55238.31;2078615;28;19921;-62
2022/03/20 03:13:10;;;;;;;;;;;;;;;-143.90;100.00;55232.34;2093560;28;19921;-63
2022/03/20 03:16:11;;;;;;;;;;;;;;;-143.90;100.00;55220.44;2091247;28;20406;-62
2022/03/20 03:17:32;;;;;;;;;;;;;;;-143.90;100.00;55230.34;2093666;28;19948;-62
2022/03/20 03:18:53;;;;;;;;;;;;;;;-143.90;100.00;55234.31;2092442;28;19957;-64
2022/03/20 03:20:14;;;;;;;;;;;;;;;-143.90;100.00;55198.59;2093293;28;19920;-62
2022/03/20 03:21:34;;;;;;;;;;;;;;;-143.90;100.00;55184.69;2093724;28;20383;-64
2022/03/20 03:22:55;;;;;;;;;;;;;;;-143.90;100.00;55218.44;2093708;28;19935;-62
2022/03/20 03:24:15;;;;;;;;;;;;;;;-143.90;100.00;55222.41;2092743;28;19926;-63
2022/03/20 03:25:37;;;;;;;;;;;;;;;-143.90;100.00;55202.56;2092654;28;19926;-63
2022/03/20 03:26:58;;;;;;;;;;;;;;;-143.90;100.00;55192.63;2093189;28;20737;-62
2022/03/20 03:28:19;;;;;;;;;;;;;;;-143.90;100.00;55206.53;2094148;28;19997;-61
2022/03/20 03:29:40;;;;;;;;;;;;;;;-143.90;100.00;55194.63;2092481;28;20444;-63
2022/03/20 03:31:01;;;;;;;;;;;;;;;-143.90;100.00;55226.38;2093240;28;20281;-64
2022/03/20 03:32:22;;;;;;;;;;;;;;;-143.90;100.00;55238.31;2092898;28;19920;-63
2022/03/20 03:37:02;;;;;;;;;;;;;;;-143.90;100.00;55222.41;2092096;28;19958;-60
2022/03/20 03:38:25;;;;;;;;;;;;;;;-143.90;100.00;55230.34;2092353;28;19931;-63
2022/03/20 03:39:46;;;;;;;;;;;;;;;-143.90;100.00;55246.25;2092553;28;19920;-61
2022/03/20 03:41:07;;;;;;;;;;;;;;;-143.90;100.00;55232.34;2092111;28;20796;-62
2022/03/20 03:42:29;;;;;;;;;;;;;;;-143.90;100.00;55202.56;2093042;28;19921;-64
2022/03/20 03:43:50;;;;;;;;;;;;;;;-143.90;100.00;55218.44;2093708;28;19929;-62
2022/03/20 03:45:11;;;;;;;;;;;;;;;-143.90;100.00;55214.47;2092239;28;19974;-63
2022/03/20 03:46:33;;;;;;;;;;;;;;;-143.90;100.00;55200.56;2093325;28;19970;-64
2022/03/20 03:47:53;;;;;;;;;;;;;;;-143.90;100.00;55238.31;2093886;28;19941;-63
2022/03/20 03:49:14;;;;;;;;;;;;;;;-143.90;100.00;55218.44;2084233;28;19931;-63
2022/03/20 03:50:36;;;;;;;;;;;;;;;-143.90;100.00;55194.63;2088437;28;20434;-62
2022/03/20 03:51:57;;;;;;;;;;;;;;;-143.90;100.00;55234.31;2091168;28;19931;-62
2022/03/20 03:53:18;;;;;;;;;;;;;;;-143.90;100.00;55182.69;2092038;28;19920;-61
2022/03/20 03:54:39;;;;;;;;;;;;;;;-143.90;100.00;55230.34;2091855;28;19967;-62
2022/03/20 03:55:59;;;;;;;;;;;;;;;-143.90;100.00;55162.84;2092377;28;19920;-61
2022/03/20 03:57:20;;;;;;;;;;;;;;;-143.90;100.00;55198.59;2093527;28;19928;-62
2022/03/20 03:58:41;;;;;;;;;;;;;;;-143.90;100.00;55150.94;2092928;28;19997;-61
2022/03/20 04:00:02;;;;;;;;;;;;;;;-143.90;100.00;55166.81;2092674;28;19924;-62
2022/03/20 04:01:23;;;;;;;;;;;;;;;-143.90;100.00;55206.53;2090580;28;19924;-62
2022/03/20 04:02:44;;;;;;;;;;;;;;;-143.90;100.00;55190.66;2094230;28;19965;-63
2022/03/20 04:04:05;;;;;;;;;;;;;;;-143.90;100.00;55178.72;2094362;28;20354;-62
2022/03/20 04:05:25;;;;;;;;;;;;;;;-143.90;100.00;55220.44;2093020;28;20011;-63
2022/03/20 04:06:46;;;;;;;;;;;;;;;-143.90;100.00;55234.31;2091629;28;19920;-63
2022/03/20 04:08:07;;;;;;;;;;;;;;;-143.90;100.00;55254.19;2084224;28;19920;-62
2022/03/20 04:09:28;;;;;;;;;;;;;;;-143.90;100.00;55214.47;2089725;28;19973;-62
2022/03/20 04:10:48;;;;;;;;;;;;;;;-143.90;99.79;55234.31;2093528;28;19940;-61
2022/03/20 04:12:09;;;;;;;;;;;;;;;-143.90;99.79;55214.47;2092478;28;19952;-61
2022/03/20 04:13:30;;;;;;;;;;;;;;;-143.90;99.69;55222.41;2092326;28;19913;-59
2022/03/20 04:14:51;;;;;;;;;;;;;;;-143.90;99.27;55170.78;2093031;28;20069;-63
2022/03/20 04:16:11;;;;;;;;;;;;;;;-143.90;98.98;55198.59;2092989;28;19968;-60
2022/03/20 04:17:33;;;;;;;;;;;;;;;-143.90;98.59;55182.69;2091857;28;19925;-62
2022/03/20 04:18:54;;;;;;;;;;;;;;;-143.90;98.50;55242.28;2093047;28;19924;-62
2022/03/20 04:20:14;;;;;;;;;;;;;;;-143.90;98.36;55188.66;2093300;28;19934;-63
2022/03/20 04:21:35;;;;;;;;;;;;;;;-143.90;97.15;55202.56;2093083;28;19986;-62
2022/03/20 04:24:36;;;;;;;;;;;;;;;-143.90;95.83;55202.56;2090885;28;19929;-62
2022/03/20 04:25:56;;;;;;;;;;;;;;;-143.90;95.56;55242.28;2091364;28;19924;-63
2022/03/20 04:27:18;;;;;;;;;;;;;;;-143.90;95.00;55194.63;2091767;28;19966;-63
2022/03/20 04:28:39;;;;;;;;;;;;;;;-143.90;95.08;55206.53;2092391;28;19921;-62
2022/03/20 04:30:00;;;;;;;;;;;;;;;-143.90;94.37;55202.56;2092524;28;19928;-63
2022/03/20 04:31:21;;;;;;;;;;;;;;;-143.90;93.89;55182.69;2091459;28;19985;-62
2022/03/20 04:32:43;;;;;;;;;;;;;;;-143.90;94.04;55182.69;2092373;28;19931;-59
2022/03/20 04:34:04;;;;;;;;;;;;;;;-143.90;93.09;55206.53;2092365;28;19972;-64
2022/03/20 04:35:25;;;;;;;;;;;;;;;-143.90;92.13;55210.50;2092645;28;19924;-63
2022/03/20 04:36:46;;;;;;;;;;;;;;;-143.90;90.75;55224.41;2092804;28;19925;-62
2022/03/20 04:38:06;;;;;;;;;;;;;;;-143.90;91.05;55182.69;2093401;28;19967;-63
2022/03/20 04:39:27;;;;;;;;;;;;;;;-143.90;89.80;55210.50;2094020;28;20027;-62
2022/03/20 04:40:49;;;;;;;;;;;;;;;-143.90;90.10;55196.59;2091299;28;19924;-62
2022/03/20 04:42:09;;;;;;;;;;;;;;;-143.90;88.56;55218.44;2093211;28;19920;-62
2022/03/20 04:43:30;;;;;;;;;;;;;;;-143.90;88.58;55202.56;2092911;28;19920;-60
2022/03/20 04:44:51;;;;;;;;;;;;;;;-143.90;88.39;55198.59;2093793;28;19982;-61
2022/03/20 04:46:12;;;;;;;;;;;;;;;-143.90;88.52;55224.41;2093078;28;20408;-62
2022/03/20 04:59:08;;;;;;;;;;;;;;;-143.90;85.37;55210.50;2092440;28;19928;-62
2022/03/20 05:00:29;;;;;;;;;;;;;;;-143.90;84.79;55234.31;2092193;28;20481;-63
2022/03/20 05:01:50;;;;;;;;;;;;;;;-143.90;84.19;55206.53;2093529;28;19927;-63
2022/03/20 05:03:10;;;;;;;;;;;;;;;-143.90;84.27;55182.69;2094408;28;20001;-64
2022/03/20 05:04:31;;;;;;;;;;;;;;;-143.90;83.95;55198.59;2094429;28;20486;-62
2022/03/20 05:05:52;;;;;;;;;;;;;;;-143.90;83.32;55166.81;2093439;28;19928;-64
2022/03/20 05:07:12;;;;;;;;;;;;;;;-143.90;83.31;55192.63;2095295;28;19966;-63
2022/03/20 05:08:35;;;;;;;;;;;;;;;-143.90;83.76;55206.53;2093304;28;20452;-62
2022/03/20 05:13:20;;;;;;;;;;;;;;;-143.90;82.65;55196.59;2092430;28;19924;-64
2022/03/20 05:14:41;;;;;;;;;;;;;;;-143.90;82.61;55206.53;2092194;28;19920;-62
2022/03/20 05:16:01;;;;;;;;;;;;;;;-143.90;81.91;55250.22;2093565;28;19920;-61
2022/03/20 05:17:23;;;;;;;;;;;;;;;-143.90;81.54;55184.69;2086433;28;20387;-63
2022/03/20 05:18:44;;;;;;;;;;;;;;;-143.90;81.04;55166.81;2092460;28;19927;-59
2022/03/20 05:20:05;;;;;;;;;;;;;;;-143.90;80.53;55206.53;2095362;28;19924;-64
2022/03/20 05:21:25;;;;;;;;;;;;;;;-143.90;80.95;55194.63;2094222;28;19925;-64
2022/03/20 05:22:46;;;;;;;;;;;;;;;-143.90;80.59;55186.69;2093226;28;20016;-63
2022/03/20 05:24:07;;;;;;;;;;;;;;;-143.90;79.31;55146.97;2093950;28;19916;-63
2022/03/20 05:25:28;;;;;;;;;;;;;;;-143.90;79.24;55196.59;2095320;28;20390;-64
2022/03/20 05:26:49;;;;;;;;;;;;;;;-143.90;79.14;55174.75;2086709;28;19921;-62
2022/03/20 05:28:10;;;;;;;;;;;;;;;-143.90;78.45;55198.59;2092398;28;19994;-63
2022/03/20 05:29:31;;;;;;;;;;;;;;;-143.90;78.51;55170.78;2093756;28;19921;-63
2022/03/20 05:30:52;;;;;;;;;;;;;;;-143.90;77.41;55222.41;2093240;28;20299;-60
2022/03/20 05:32:13;;;;;;;;;;;;;;;-143.90;77.16;55198.59;2093272;28;19920;-63
2022/03/20 05:33:34;;;;;;;;;;;;;;;-143.90;77.30;55178.72;2095515;28;19954;-62
2022/03/20 05:34:54;;;;;;;;;;;;;;;-143.90;76.87;55186.69;2095188;28;20396;-63
2022/03/20 05:36:15;;;;;;;;;;;;;;;-143.90;76.55;55182.69;2094544;28;19937;-63
2022/03/20 05:37:36;;;;;;;;;;;;;;;-143.90;75.25;55198.59;2093692;28;20020;-63
2022/03/20 05:38:56;;;;;;;;;;;;;;;-143.90;74.15;55182.69;2094024;28;19925;-63
2022/03/20 05:40:17;;;;;;;;;;;;;;;-143.90;74.00;55154.91;2093307;28;19925;-64
2022/03/20 05:41:47;;;;;;;;;;;;;;;-143.90;73.70;55180.72;2092797;28;19920;-61
2022/03/20 05:43:08;;;;;;;;;;;;;;;-143.90;73.20;55174.75;2094465;28;19999;-63
2022/03/20 05:44:29;;;;;;;;;;;;;;;-143.90;72.86;55198.59;2094941;28;19924;-62
2022/03/20 05:45:49;;;;;;;;;;;;;;;-143.90;72.38;55188.66;2093911;28;19949;-62
2022/03/20 05:47:10;;;;;;;;;;;;;;;-143.90;71.84;55200.56;2093458;28;19963;-63
2022/03/20 05:48:32;;;;;;;;;;;;;;;-143.90;71.34;55202.56;2092442;28;19937;-62
2022/03/20 05:49:54;;;;;;;;;;;;;;;-143.90;72.00;55144.97;2094216;28;20317;-63
2022/03/20 05:51:15;;;;;;;;;;;;;;;-143.90;71.20;55190.66;2093717;28;21020;-63
2022/03/20 05:52:36;;;;;;;;;;;;;;;-143.90;71.00;55162.84;2095043;28;19934;-62
2022/03/20 05:53:57;;;;;;;;;;;;;;;-143.90;70.98;55186.69;2094838;28;20388;-63
2022/03/20 05:55:17;;;;;;;;;;;;;;;-143.90;70.67;55176.75;2093143;28;19925;-62
2022/03/20 05:58:18;;;;;;;;;;;;;;;-143.90;69.51;55192.63;2092824;28;20023;-63
2022/03/20 05:59:38;;;;;;;;;;;;;;;-143.90;69.74;55170.78;2093555;28;19920;-61
2022/03/20 06:00:59;;;;;;;;;;;;;;;-143.90;69.39;55220.44;2094459;28;20404;-62
2022/03/20 06:02:20;;;;;;;;;;;;;;;-143.90;69.48;55222.41;2093824;28;19932;-62
2022/03/20 06:03:42;;;;;;;;;;;;;;;-143.90;69.32;55164.84;2094058;28;20661;-62
2022/03/20 06:05:05;;;;;;;;;;;;;;;-143.90;68.81;55152.91;2092294;28;19924;-62
2022/03/20 06:06:26;;;;;;;;;;;;;;;-143.90;69.08;55170.78;2093662;28;19928;-62
2022/03/20 06:07:47;;;;;;;;;;;;;;;-143.90;68.30;55190.66;2093123;28;19952;-63
2022/03/20 06:09:08;;;;;;;;;;;;;;;-143.90;68.31;55210.50;2094530;28;19920;-62
2022/03/20 06:10:29;;;;;;;;;;;;;;;-143.90;68.20;55162.84;2093598;28;19921;-62
2022/03/20 06:11:50;;;;;;;;;;;;;;;-143.90;67.71;55194.63;2094539;28;20402;-62
2022/03/20 06:13:11;;;;;;;;;;;;;;;-143.90;67.76;55186.69;2093955;28;19927;-63
2022/03/20 06:14:35;;;;;;;;;;;;;;;-143.90;67.49;55174.75;2094196;28;19969;-61
2022/03/20 06:15:57;;;;;;;;;;;;;;;-143.90;67.09;55143.00;2092945;28;19956;-63
2022/03/20 06:17:18;;;;;;;;;;;;;;;-143.90;67.40;55202.56;2093909;28;19920;-62
2022/03/20 06:18:39;;;;;;;;;;;;;;;-143.90;66.87;55190.66;2094647;28;20452;-62
2022/03/20 06:20:00;;;;;;;;;;;;;;;-143.90;66.75;55214.47;2095166;28;19994;-63
2022/03/20 06:21:22;;;;;;;;;;;;;;;-143.90;67.00;55198.59;2094574;28;20382;-62
2022/03/20 06:22:44;;;;;;;;;;;;;;;-143.90;66.54;55162.84;2093730;28;19927;-63
2022/03/20 06:24:05;;;;;;;;;;;;;;;-143.90;65.49;55182.69;2094180;28;19956;-62
2022/03/20 06:25:26;;;;;;;;;;;;;;;-143.90;65.43;55194.63;2093155;28;20402;-62
2022/03/20 06:26:46;;;;;;;;;;;;;;;-143.90;65.11;55186.69;2094055;28;19921;-63
2022/03/20 06:28:07;;;;;;;;;;;;;;;-143.90;64.01;55178.72;2095146;28;19920;-62
2022/03/20 06:29:28;;;;;;;;;;;;;;;-143.90;64.02;55154.91;2092696;28;20023;-63
2022/03/20 06:30:48;;;;;;;;;;;;;;;-143.90;63.58;55178.72;2094135;28;19924;-63
2022/03/20 06:32:10;;;;;;;;;;;;;;;-143.90;62.94;55196.59;2094318;28;19928;-62
2022/03/20 06:33:30;;;;;;;;;;;;;;;-143.90;62.30;55152.91;2093162;28;20261;-63
2022/03/20 06:34:52;;;;;;;;;;;;;;;-143.90;61.93;55198.59;2094514;28;20276;-64
2022/03/20 06:36:13;;;;;;;;;;;;;;;-143.90;61.54;55194.63;2093463;28;19931;-64
2022/03/20 06:37:38;;;;;;;;;;;;;;;-143.90;61.03;55170.78;2091583;28;20810;-64
2022/03/20 06:38:59;;;;;;;;;;;;;;;-143.90;60.55;55137.03;2093621;28;20961;-62
2022/03/20 06:40:20;;;;;;;;;;;;;;;-143.90;59.90;55178.72;2092696;28;20105;-60
2022/03/20 06:41:41;;;;;;;;;;;;;;;-143.90;59.58;55158.88;2092751;28;19920;-63
2022/03/20 06:43:02;;;;;;;;;;;;;;;-143.90;58.95;55178.72;2094541;28;19921;-63
2022/03/20 06:44:22;;;;;;;;;;;;;;;-143.90;58.75;55143.00;2094266;28;19927;-63
2022/03/20 06:45:43;;;;;;;;;;;;;;;-143.90;58.19;55166.81;2093692;28;19974;-63
2022/03/20 06:47:04;;;;;;;;;;;;;;;-143.90;58.03;55162.84;2093352;28;19920;-62
2022/03/20 06:48:25;;;;;;;;;;;;;;;-143.90;57.37;55150.94;2094160;28;19931;-64
2022/03/20 06:49:45;;;;;;;;;;;;;;;-143.90;56.79;55158.88;2093320;28;20472;-63
2022/03/20 06:51:07;;;;;;;;;;;;;;;-143.90;57.15;55178.72;2094066;28;20337;-65
2022/03/20 06:52:31;;;;;;;;;;;;;;;-143.90;56.81;55156.88;2095862;28;19920;-64
2022/03/20 06:53:52;;;;;;;;;;;;;;;-143.90;56.13;55162.84;2094017;28;20392;-66
2022/03/20 06:55:13;;;;;;;;;;;;;;;-143.90;56.42;55170.78;2094333;28;19916;-66
2022/03/20 06:56:34;;;;;;;;;;;;;;;-143.90;55.76;55170.78;2094300;28;19924;-66
2022/03/20 06:57:55;;;;;;;;;;;;;;;-143.90;55.82;55174.75;2095073;28;20633;-65
2022/03/20 06:59:16;;;;;;;;;;;;;;;-143.90;54.62;55158.88;2093975;28;19924;-66
2022/03/20 07:00:37;;;;;;;;;;;;;;;-143.90;54.63;55139.03;2095244;28;19924;-66
2022/03/20 07:01:58;;;;;;;;;;;;;;;-143.90;54.99;55146.97;2093003;28;20406;-66
2022/03/20 07:03:19;;;;;;;;;;;;;;;-143.90;54.83;55146.97;2092906;28;19921;-64
2022/03/20 07:04:40;;;;;;;;;;;;;;;-143.90;54.34;55206.53;2095361;28;19920;-64
2022/03/20 07:06:00;;;;;;;;;;;;;;;-143.90;54.19;55148.94;2094132;28;19924;-66
2022/03/20 07:07:21;;;;;;;;;;;;;;;-143.90;53.23;55158.88;2094704;28;19960;-66
2022/03/20 07:08:42;;;;;;;;;;;;;;;-143.90;53.34;55170.78;2091443;28;20390;-66
2022/03/20 07:10:03;;;;;;;;;;;;;;;-143.90;53.80;55174.75;2092452;28;19928;-66
2022/03/20 07:11:25;;;;;;;;;;;;;;;-143.90;53.13;55148.94;2093252;28;19920;-65
2022/03/20 07:12:47;;;;;;;;;;;;;;;-143.90;53.36;55162.84;2091975;28;19979;-66
2022/03/20 07:14:08;;;;;;;;;;;;;;;-143.90;53.52;55160.84;2093464;28;20446;-66
2022/03/20 07:15:29;;;;;;;;;;;;;;;-143.90;52.66;55135.03;2084584;28;19921;-66
2022/03/20 07:16:50;;;;;;;;;;;;;;;-143.90;52.76;55158.88;2088355;28;19987;-65